Batman, Turkey
Current Conditions -  °F | °C
As of 3:20 PM on Tuesday 21 Oct 2014 (Local Time) from LTCJ Reporting Station
Few Clouds Few Clouds  
Wind Chill: 72°   Ceiling: Unl
Heat Index: 72°   Visibility: 6mi
Dew Point: 46°   Wind: 5mph
Humidity: 41%   Direction: 230°SW
Pressure: 29.94"   Gusts: NA
Location:  37.89°N, 41.13°E
Report Text: LTCJ 211220Z 23004KT 200V260 9999 FEW040 22/08 Q1014
Loading
Personal Weather Stations






























Interactive Weather Map
Tropical Storm Tracking
New forecast layout! Learn more

10-Day Weather Forecast

Advertisements
Track Severe Weather on mobile